メインページ
METAR-TAF:

METAR-TAF

空港 :

ダーウィン, オーストラリア

ダーウィン国際空港

緯度: 12-24S, 経度: 130-52E, 海抜: 31m

現時点の気象観測

当レポートは16分前の16:00(UTC)に作成
の風 11kt
気温 25°C
湿度 89%
気圧 1008 hPa
視程10km以上
1,500メートル以下は雲なし、積乱雲なし

METAR: YPDN 231600Z 08011KT CAVOK 25/23 Q1008 THROUGH TO THE WEST

時間: 01:46 (16:16 UTC)

予報

当レポートは1時間3分前の15:13(UTC)に作成
予報は23日の 15時(UTC)から 24日の 18時(UTC)まで有効
の風 10kt
視程10km以上
高度2000ftの雲は散在している
小雨
23日の 1900時(UTC)から
西の風 6kt
視程10km以上
高度2000ftの雲は散在している
24日の 0100時(UTC)から
西の風 12kt
視程10km以上
高度2500ftの雲は散在している
24日の 1200時(UTC)から
西の風 6kt
視程10km以上
高度2000ftの雲は散在している
確率 30% :
23日の 15時(UTC)から 23日の 18時(UTC)まで一時的に
変向風 20kt、最大35ktの突風を伴う
視程: 1000m
高度1000ftの千切れ雲あり
高度2000ftの雲は散在している, 積乱雲.
激しい雷雨, 雨
確率 30% :
24日の 05時(UTC)から 24日の 11時(UTC)まで一時的に
変向風 20kt、最大35ktの突風を伴う
視程: 1000m
高度1000ftの千切れ雲あり
高度2000ftの雲は散在している, 積乱雲.
激しい雷雨, 雨

TAF: YPDN 231513Z 2315/2418 08010KT 9999 -RA SCT020 FM231900 27006KT 9999 NSW SCT020 FM240100 27012KT 9999 SCT025 FM241200 27006KT 9999 SCT020 PROB30 TEMPO 2315/2318 VRB20G35KT 1000 TSRA BKN010 SCT020CB PROB30 TEMPO 2405/2411 VRB20G35KT 1000 TSRA BKN010 SCT020CB

4,000以上の空港の気象観測と天気予報(METAR報とTAF報)

利用可能な観測所は地図上に黄色い丸と赤い丸で示す。

丸の上にカーソルを重ねると観測所名を参照できる。

次にクリックすると気象観測と天気予報を参照できる。

マップの切り替え:黒色「×」印の緑ボタンをクリックして拡大、「-」印の緑ボタンをクリックして縮小、緑色の三角印をクリックして隣りの地図に切り替え


METAR-TAF: